createdAt,value
2019-04-28T00:01:08.190Z,8.80
2019-04-28T00:03:37.724Z,8.80
2019-04-28T00:06:06.991Z,8.90
2019-04-28T00:08:36.633Z,8.60
2019-04-28T00:11:05.983Z,8.50
2019-04-28T00:13:35.257Z,8.60
2019-04-28T00:16:07.486Z,8.60
2019-04-28T00:18:37.135Z,8.70
2019-04-28T00:21:08.076Z,8.60
2019-04-28T00:23:47.478Z,8.50
2019-04-28T00:26:18.409Z,8.40
2019-04-28T00:28:47.698Z,8.30
2019-04-28T00:31:17.033Z,8.20
2019-04-28T00:33:46.939Z,8.10
2019-04-28T00:36:16.548Z,8.10
2019-04-28T00:38:46.155Z,8.10
2019-04-28T00:41:15.663Z,8.00
2019-04-28T00:43:45.120Z,7.80
2019-04-28T00:46:16.026Z,7.80
2019-04-28T00:48:45.315Z,7.70
2019-04-28T00:51:14.586Z,7.70
2019-04-28T00:53:44.211Z,7.70
2019-04-28T00:56:13.498Z,7.70
2019-04-28T00:58:42.775Z,7.70
2019-04-28T01:01:22.655Z,7.70
2019-04-28T01:03:52.088Z,7.60
2019-04-28T01:06:22.241Z,7.50
2019-04-28T01:08:51.736Z,7.40
2019-04-28T01:11:21.782Z,7.50
2019-04-28T01:13:51.864Z,7.30
2019-04-28T01:16:23.074Z,7.40
2019-04-28T01:19:00.363Z,7.50
2019-04-28T01:21:47.739Z,7.80
2019-04-28T01:24:17.295Z,7.70
2019-04-28T01:26:47.739Z,7.70
2019-04-28T01:29:17.327Z,7.70
2019-04-28T01:31:49.430Z,8.00
2019-04-28T01:34:32.463Z,8.20
2019-04-28T01:37:06.339Z,8.00
2019-04-28T01:39:35.838Z,7.90
2019-04-28T01:42:05.440Z,7.80
2019-04-28T01:44:34.731Z,7.90
2019-04-28T01:47:04.015Z,7.80
2019-04-28T01:49:33.300Z,7.70
2019-04-28T01:52:02.590Z,7.90
2019-04-28T01:54:31.854Z,7.80
2019-04-28T01:57:01.560Z,7.80
2019-04-28T01:59:30.991Z,7.90
2019-04-28T02:02:00.364Z,7.70
2019-04-28T02:04:32.307Z,7.70
2019-04-28T02:07:00.674Z,7.60
2019-04-28T02:09:29.970Z,7.60
2019-04-28T02:12:00.800Z,7.70
2019-04-28T02:14:30.772Z,7.60
2019-04-28T02:17:00.699Z,7.50
2019-04-28T02:19:32.692Z,7.70
2019-04-28T02:22:14.394Z,7.80
2019-04-28T02:24:43.667Z,7.90
2019-04-28T02:27:12.950Z,8.00
2019-04-28T02:29:42.219Z,8.20
2019-04-28T02:32:12.965Z,8.10
2019-04-28T02:34:42.600Z,8.10
2019-04-28T02:37:11.898Z,8.20
2019-04-28T02:39:41.439Z,8.50
2019-04-28T02:42:11.183Z,8.60
2019-04-28T02:44:40.938Z,8.70
2019-04-28T02:47:11.070Z,8.80
2019-04-28T02:49:50.204Z,8.90
2019-04-28T02:52:20.852Z,8.80
2019-04-28T02:54:50.917Z,8.80
2019-04-28T02:57:21.045Z,8.90
2019-04-28T02:59:51.064Z,8.90
2019-04-28T03:02:21.010Z,8.90
2019-04-28T03:04:50.861Z,8.70
2019-04-28T03:07:21.709Z,8.60
2019-04-28T03:09:52.205Z,8.60
2019-04-28T03:12:21.890Z,8.50
2019-04-28T03:14:51.456Z,8.40
2019-04-28T03:17:21.099Z,8.40
2019-04-28T03:19:51.614Z,8.40
2019-04-28T03:22:21.340Z,8.30
2019-04-28T03:24:52.548Z,8.40
2019-04-28T03:27:30.971Z,8.40
2019-04-28T03:30:02.472Z,8.40
2019-04-28T03:32:45.525Z,8.30
2019-04-28T03:35:04.748Z,8.30
2019-04-28T03:37:34.053Z,8.30
2019-04-28T03:40:04.632Z,8.20
2019-04-28T03:42:34.009Z,8.20
2019-04-28T03:45:04.991Z,8.30
2019-04-28T03:47:34.276Z,8.00
2019-04-28T03:50:04.926Z,7.90
2019-04-28T03:52:34.220Z,7.80
2019-04-28T03:55:04.637Z,7.70
2019-04-28T03:57:33.924Z,7.70
2019-04-28T04:00:05.153Z,7.50
2019-04-28T04:02:34.442Z,7.40
2019-04-28T04:05:05.366Z,7.70
2019-04-28T04:07:35.031Z,7.50
2019-04-28T04:10:11.169Z,7.40
2019-04-28T04:12:41.382Z,7.60
2019-04-28T04:15:12.544Z,7.70
2019-04-28T04:17:43.456Z,7.60
2019-04-28T04:20:16.072Z,7.60
2019-04-28T04:22:45.346Z,7.60
2019-04-28T04:25:14.626Z,7.50
2019-04-28T04:27:43.900Z,7.40
2019-04-28T04:30:13.188Z,7.40
2019-04-28T04:32:42.466Z,7.50
2019-04-28T04:35:11.750Z,7.30
2019-04-28T04:37:41.044Z,7.20
2019-04-28T04:40:13.099Z,7.10
2019-04-28T04:42:41.624Z,7.00
2019-04-28T04:45:10.980Z,7.10
2019-04-28T04:47:40.852Z,7.30
2019-04-28T04:50:11.347Z,7.40
2019-04-28T04:52:41.338Z,7.50
2019-04-28T04:55:11.245Z,7.40
2019-04-28T04:57:40.919Z,7.40
2019-04-28T05:00:11.978Z,7.40
2019-04-28T05:02:51.710Z,7.50
2019-04-28T05:05:19.994Z,7.80
2019-04-28T05:07:50.758Z,7.70
2019-04-28T05:10:20.462Z,7.70
2019-04-28T05:12:49.970Z,7.90
2019-04-28T05:15:20.803Z,7.90
2019-04-28T05:17:50.368Z,8.00
2019-04-28T05:20:20.130Z,8.20
2019-04-28T05:23:03.314Z,8.20
2019-04-28T05:25:43.482Z,8.20
2019-04-28T05:28:13.071Z,8.20
2019-04-28T05:30:43.146Z,8.20
2019-04-28T05:33:14.168Z,8.20
2019-04-28T05:35:43.455Z,8.20
2019-04-28T05:38:12.731Z,8.10
2019-04-28T05:40:42.022Z,8.00
2019-04-28T05:43:11.300Z,8.10
2019-04-28T05:45:40.593Z,8.20
2019-04-28T05:48:11.346Z,8.20
2019-04-28T05:50:42.614Z,8.10
2019-04-28T05:53:16.254Z,8.10
2019-04-28T05:55:53.142Z,8.10
2019-04-28T05:58:26.872Z,8.40
2019-04-28T06:01:00.748Z,8.10
2019-04-28T06:03:31.658Z,8.00
2019-04-28T06:06:00.947Z,8.20
2019-04-28T06:08:51.037Z,8.20
2019-04-28T06:11:31.246Z,8.30
2019-04-28T06:14:00.606Z,8.20
2019-04-28T06:16:30.587Z,8.20
2019-04-28T06:19:00.258Z,8.20
2019-04-28T06:21:29.922Z,8.20
2019-04-28T06:23:59.215Z,8.10
2019-04-28T06:26:28.840Z,8.10
2019-04-28T06:28:58.111Z,8.10
2019-04-28T06:31:27.391Z,8.10
2019-04-28T06:33:56.692Z,8.10
2019-04-28T06:36:26.243Z,8.10
2019-04-28T06:38:55.530Z,8.30
2019-04-28T06:41:24.798Z,8.40
2019-04-28T06:43:54.347Z,8.40
2019-04-28T06:46:23.638Z,8.40
2019-04-28T06:48:52.915Z,8.60
2019-04-28T06:51:22.454Z,8.70
2019-04-28T06:53:52.068Z,8.70
2019-04-28T06:56:21.353Z,8.70
2019-04-28T06:58:58.938Z,8.90
2019-04-28T07:01:21.610Z,8.90
2019-04-28T07:03:50.894Z,8.90
2019-04-28T07:06:20.515Z,9.00
2019-04-28T07:08:49.807Z,9.20
2019-04-28T07:11:19.076Z,9.00
2019-04-28T07:13:48.367Z,9.00
2019-04-28T07:16:17.654Z,9.00
2019-04-28T07:18:46.920Z,9.10
2019-04-28T07:21:18.075Z,9.40
2019-04-28T07:23:47.720Z,9.50
2019-04-28T07:26:17.012Z,9.50
2019-04-28T07:28:46.386Z,9.40
2019-04-28T07:31:16.474Z,9.30
2019-04-28T07:33:45.762Z,9.40
2019-04-28T07:36:15.295Z,9.70
2019-04-28T07:38:44.783Z,9.80
2019-04-28T07:41:14.061Z,9.70
2019-04-28T07:43:43.480Z,9.70
2019-04-28T07:46:12.775Z,9.70
2019-04-28T07:48:42.114Z,9.80
2019-04-28T07:51:11.616Z,9.70
2019-04-28T07:53:42.535Z,9.60
2019-04-28T07:56:11.809Z,9.80
2019-04-28T07:58:41.355Z,10.00
2019-04-28T08:01:12.508Z,10.10
2019-04-28T08:03:49.161Z,10.40
2019-04-28T08:06:12.783Z,10.80
2019-04-28T08:08:42.079Z,10.80
2019-04-28T08:11:11.350Z,10.60
2019-04-28T08:13:40.951Z,10.30
2019-04-28T08:16:10.223Z,10.30
2019-04-28T08:18:39.507Z,10.60
2019-04-28T08:21:08.780Z,10.90
2019-04-28T08:23:47.074Z,11.00
2019-04-28T08:26:09.043Z,11.10
2019-04-28T08:28:38.330Z,11.10
2019-04-28T08:31:08.994Z,11.20
2019-04-28T08:33:42.826Z,11.40
2019-04-28T08:36:12.149Z,11.60
2019-04-28T08:38:41.406Z,11.70
2019-04-28T08:41:10.703Z,11.70
2019-04-28T08:43:39.979Z,11.80
2019-04-28T08:46:09.271Z,11.80
2019-04-28T08:48:38.553Z,11.70
2019-04-28T08:51:07.855Z,11.60
2019-04-28T08:53:37.130Z,11.60
2019-04-28T08:56:06.422Z,11.70
2019-04-28T08:58:35.699Z,11.60
2019-04-28T09:01:04.990Z,11.70
2019-04-28T09:03:34.292Z,11.80
2019-04-28T09:06:03.808Z,11.80
2019-04-28T09:08:33.090Z,11.80
2019-04-28T09:11:02.670Z,11.80
2019-04-28T09:13:31.942Z,12.00
2019-04-28T09:16:01.221Z,12.20
2019-04-28T09:18:30.758Z,12.20
2019-04-28T09:21:00.407Z,12.30
2019-04-28T09:23:29.655Z,12.50
2019-04-28T09:25:58.946Z,12.70
2019-04-28T09:28:28.580Z,12.90
2019-04-28T09:30:58.183Z,13.30
2019-04-28T09:33:27.791Z,13.50
2019-04-28T09:35:57.082Z,13.50
2019-04-28T09:38:26.702Z,13.50
2019-04-28T09:40:56.046Z,13.60
2019-04-28T09:43:27.072Z,13.50
2019-04-28T09:46:01.131Z,13.40
2019-04-28T09:48:30.442Z,13.40
2019-04-28T09:50:59.814Z,13.20
2019-04-28T09:53:29.189Z,13.30
2019-04-28T09:55:59.285Z,12.90
2019-04-28T09:58:28.786Z,12.80
2019-04-28T10:00:58.046Z,13.20
2019-04-28T10:03:27.595Z,13.80
2019-04-28T10:05:56.880Z,14.60
2019-04-28T10:08:26.250Z,15.30
2019-04-28T10:10:55.574Z,15.40
2019-04-28T10:13:25.103Z,15.30
2019-04-28T10:15:54.422Z,14.70
2019-04-28T10:18:23.703Z,14.20
2019-04-28T10:20:53.311Z,13.80
2019-04-28T10:23:22.726Z,13.70
2019-04-28T10:25:52.030Z,13.80
2019-04-28T10:28:21.623Z,13.90
2019-04-28T10:30:50.916Z,13.70
2019-04-28T10:33:20.200Z,13.70
2019-04-28T10:35:49.507Z,13.70
2019-04-28T10:38:18.787Z,13.60
2019-04-28T10:40:49.726Z,13.40
2019-04-28T10:43:19.007Z,13.50
2019-04-28T10:45:49.961Z,13.70
2019-04-28T10:48:19.259Z,14.40
2019-04-28T10:50:48.534Z,14.70
2019-04-28T10:53:17.830Z,14.70
2019-04-28T10:55:47.103Z,14.60
2019-04-28T10:58:16.391Z,14.60
2019-04-28T11:00:45.666Z,14.30
2019-04-28T11:03:14.950Z,14.30
2019-04-28T11:05:45.003Z,14.10
2019-04-28T11:08:25.387Z,13.90
2019-04-28T11:10:55.008Z,13.80
2019-04-28T11:13:24.278Z,13.80
2019-04-28T11:15:53.855Z,13.50
2019-04-28T11:18:23.143Z,13.30
2019-04-28T11:20:52.435Z,13.10
2019-04-28T11:23:23.258Z,13.20
2019-04-28T11:25:52.846Z,13.40
2019-04-28T11:28:22.463Z,13.70
2019-04-28T11:30:51.730Z,13.50
2019-04-28T11:33:40.927Z,13.60
2019-04-28T11:36:10.204Z,13.70
2019-04-28T11:38:39.499Z,13.60
2019-04-28T11:41:11.526Z,13.70
2019-04-28T11:43:40.020Z,13.70
2019-04-28T11:46:10.931Z,13.50
2019-04-28T11:48:40.218Z,13.60
2019-04-28T11:51:09.816Z,13.60
2019-04-28T11:53:39.106Z,13.80
2019-04-28T11:56:08.723Z,13.80
2019-04-28T11:58:38.331Z,13.80
2019-04-28T12:01:07.890Z,13.70
2019-04-28T12:03:37.182Z,13.80
2019-04-28T12:06:06.471Z,13.90
2019-04-28T12:08:35.750Z,14.00
2019-04-28T12:11:09.371Z,14.20
2019-04-28T12:13:40.693Z,14.40
2019-04-28T12:16:23.855Z,14.00
2019-04-28T12:19:00.526Z,14.00
2019-04-28T12:21:29.803Z,14.10
2019-04-28T12:23:59.088Z,14.10
2019-04-28T12:26:28.360Z,14.40
2019-04-28T12:29:00.619Z,14.60
2019-04-28T12:31:28.934Z,14.80
2019-04-28T12:33:58.231Z,14.90
2019-04-28T12:36:27.895Z,15.10
2019-04-28T12:38:57.559Z,15.20
2019-04-28T12:41:27.067Z,15.20
2019-04-28T12:43:56.358Z,15.20
2019-04-28T12:46:25.636Z,15.80
2019-04-28T12:48:56.811Z,16.70
2019-04-28T12:51:26.105Z,17.70
2019-04-28T12:53:57.023Z,18.40
2019-04-28T12:56:26.318Z,18.90
2019-04-28T12:58:57.259Z,19.40
2019-04-28T13:01:31.251Z,20.10
2019-04-28T13:04:11.482Z,20.40
2019-04-28T13:06:40.768Z,19.80
2019-04-28T13:09:10.039Z,19.50
2019-04-28T13:11:39.719Z,20.00
2019-04-28T13:14:09.003Z,20.10
2019-04-28T13:16:38.292Z,20.20
2019-04-28T13:19:07.562Z,20.50
2019-04-28T13:21:36.845Z,20.30
2019-04-28T13:24:06.114Z,19.80
2019-04-28T13:26:35.403Z,19.30
2019-04-28T13:29:04.679Z,19.60
2019-04-28T13:31:33.971Z,19.80
2019-04-28T13:34:05.110Z,20.50
2019-04-28T13:36:34.470Z,20.70
2019-04-28T13:39:06.924Z,21.00
2019-04-28T13:41:37.495Z,21.00
2019-04-28T13:44:08.500Z,20.50
2019-04-28T13:46:37.789Z,20.00
2019-04-28T13:49:08.846Z,20.50
2019-04-28T13:51:38.096Z,20.50
2019-04-28T13:54:09.051Z,20.60
2019-04-28T13:56:38.348Z,21.10
2019-04-28T13:59:09.315Z,21.20
2019-04-28T14:01:52.677Z,20.40
2019-04-28T14:04:32.587Z,20.50
2019-04-28T14:07:01.866Z,20.50
2019-04-28T14:09:31.472Z,20.70
2019-04-28T14:12:00.758Z,20.70
2019-04-28T14:14:30.034Z,21.20
2019-04-28T14:16:59.330Z,21.10
2019-04-28T14:19:28.627Z,20.90
2019-04-28T14:21:58.175Z,20.70
2019-04-28T14:24:27.683Z,20.40
2019-04-28T14:26:56.975Z,20.60
2019-04-28T14:29:26.262Z,20.60
2019-04-28T14:31:55.789Z,20.20
2019-04-28T14:34:25.083Z,20.30
2019-04-28T14:36:54.601Z,20.30
2019-04-28T14:39:23.887Z,20.50
2019-04-28T14:41:53.412Z,20.00
2019-04-28T14:44:23.012Z,19.80
2019-04-28T14:46:52.634Z,19.50
2019-04-28T14:49:21.916Z,20.00
2019-04-28T14:51:51.195Z,20.10
2019-04-28T14:54:20.558Z,20.20
2019-04-28T14:56:49.828Z,20.30
2019-04-28T14:59:19.432Z,20.30
2019-04-28T15:02:02.656Z,20.60
2019-04-28T15:04:49.803Z,20.40
2019-04-28T15:07:37.297Z,20.40
2019-04-28T15:10:26.268Z,20.60
2019-04-28T15:12:55.999Z,20.10
2019-04-28T15:15:25.283Z,20.10
2019-04-28T15:17:54.626Z,20.00
2019-04-28T15:20:23.975Z,19.10
2019-04-28T15:22:53.296Z,18.70
2019-04-28T15:25:22.882Z,18.90
2019-04-28T15:27:52.154Z,18.90
2019-04-28T15:30:21.727Z,19.10
2019-04-28T15:32:50.994Z,18.90
2019-04-28T15:35:20.422Z,18.90
2019-04-28T15:37:50.003Z,19.00
2019-04-28T15:40:19.283Z,18.60
2019-04-28T15:42:48.566Z,18.60
2019-04-28T15:45:17.910Z,18.80
2019-04-28T15:47:47.198Z,18.90
2019-04-28T15:50:16.816Z,18.90
2019-04-28T15:52:46.170Z,19.00
2019-04-28T15:55:19.779Z,19.30
2019-04-28T15:57:49.066Z,19.40
2019-04-28T16:00:18.934Z,19.30
2019-04-28T16:02:48.231Z,18.70
2019-04-28T16:05:17.509Z,18.70
2019-04-28T16:07:46.810Z,18.90
2019-04-28T16:10:16.428Z,18.70
2019-04-28T16:12:45.992Z,18.30
2019-04-28T16:15:15.409Z,18.20
2019-04-28T16:17:44.962Z,18.20
2019-04-28T16:20:14.502Z,17.90
2019-04-28T16:22:44.072Z,17.80
2019-04-28T16:25:13.356Z,17.80
2019-04-28T16:27:42.643Z,17.50
2019-04-28T16:30:12.175Z,17.40
2019-04-28T16:32:41.788Z,17.40
2019-04-28T16:35:11.067Z,17.30
2019-04-28T16:37:40.356Z,16.90
2019-04-28T16:40:10.013Z,16.70
2019-04-28T16:42:39.354Z,16.20
2019-04-28T16:45:09.318Z,15.90
2019-04-28T16:47:38.927Z,15.70
2019-04-28T16:50:08.339Z,15.70
2019-04-28T16:52:37.935Z,15.60
2019-04-28T16:55:15.433Z,15.50
2019-04-28T16:58:02.612Z,15.30
2019-04-28T17:00:33.796Z,15.20
2019-04-28T17:03:03.098Z,14.90
2019-04-28T17:05:32.366Z,14.90
2019-04-28T17:08:01.899Z,14.90
2019-04-28T17:10:31.174Z,14.90
2019-04-28T17:13:00.454Z,14.70
2019-04-28T17:15:30.364Z,14.70
2019-04-28T17:18:00.019Z,14.60
2019-04-28T17:20:29.385Z,14.60
2019-04-28T17:22:58.946Z,14.40
2019-04-28T17:25:28.222Z,14.30
2019-04-28T17:27:57.538Z,14.40
2019-04-28T17:30:26.811Z,14.40
2019-04-28T17:32:56.120Z,14.30
2019-04-28T17:35:25.395Z,14.20
2019-04-28T17:38:06.044Z,14.00
2019-04-28T17:40:26.139Z,14.00
2019-04-28T17:42:55.437Z,14.00
2019-04-28T17:45:25.201Z,14.00
2019-04-28T17:47:56.118Z,13.90
2019-04-28T17:50:26.756Z,13.90
2019-04-28T17:52:56.027Z,13.80
2019-04-28T17:55:25.323Z,13.70
2019-04-28T17:57:54.591Z,13.60
2019-04-28T18:00:31.973Z,13.50
2019-04-28T18:03:03.235Z,13.40
2019-04-28T18:05:42.966Z,13.20
2019-04-28T18:08:20.943Z,13.20
2019-04-28T18:10:43.551Z,13.00
2019-04-28T18:13:13.015Z,12.90
2019-04-28T18:15:46.920Z,12.90
2019-04-28T18:18:23.540Z,12.90
2019-04-28T18:20:53.094Z,12.80
2019-04-28T18:23:22.463Z,12.80
2019-04-28T18:25:51.755Z,12.70
2019-04-28T18:28:21.036Z,12.60
2019-04-28T18:30:57.675Z,12.50
2019-04-28T18:33:29.202Z,12.40
2019-04-28T18:36:06.089Z,12.20
2019-04-28T18:38:37.347Z,12.10
2019-04-28T18:41:11.059Z,12.10
2019-04-28T18:43:45.039Z,12.00
2019-04-28T18:46:17.299Z,12.00
2019-04-28T18:48:46.855Z,11.90
2019-04-28T18:51:16.147Z,11.80
2019-04-28T18:53:45.448Z,11.70
2019-04-28T18:56:14.776Z,11.60
2019-04-28T18:58:44.110Z,11.60
2019-04-28T19:01:20.985Z,11.50
2019-04-28T19:03:50.273Z,11.40
2019-04-28T19:06:19.826Z,11.30
2019-04-28T19:08:57.019Z,11.30
2019-04-28T19:11:40.321Z,11.20
2019-04-28T19:14:14.387Z,11.10
2019-04-28T19:17:01.894Z,11.00
2019-04-28T19:19:32.880Z,11.00
2019-04-28T19:22:02.434Z,10.90
2019-04-28T19:24:31.727Z,10.90
2019-04-28T19:27:01.007Z,10.80
2019-04-28T19:29:30.294Z,10.70
2019-04-28T19:31:59.590Z,10.70
2019-04-28T19:34:28.882Z,10.60
2019-04-28T19:36:58.244Z,10.50
2019-04-28T19:39:27.532Z,10.50
2019-04-28T19:41:57.203Z,10.40
2019-04-28T19:44:26.508Z,10.50
2019-04-28T19:46:55.798Z,10.50
2019-04-28T19:49:25.075Z,10.50
2019-04-28T19:51:54.659Z,10.40
2019-04-28T19:54:25.591Z,10.40
2019-04-28T19:56:56.519Z,10.20
2019-04-28T19:59:27.458Z,10.20
2019-04-28T20:01:56.807Z,10.10
2019-04-28T20:04:26.101Z,10.10
2019-04-28T20:06:55.390Z,10.00
2019-04-28T20:09:24.984Z,10.00
2019-04-28T20:11:54.282Z,10.00
2019-04-28T20:14:23.566Z,10.00
2019-04-28T20:16:53.196Z,10.00
2019-04-28T20:19:22.492Z,10.00
2019-04-28T20:21:51.755Z,10.10
2019-04-28T20:24:21.046Z,10.00
2019-04-28T20:26:50.333Z,10.00
2019-04-28T20:29:19.635Z,10.10
2019-04-28T20:31:49.202Z,10.10
2019-04-28T20:34:18.467Z,10.20
2019-04-28T20:36:55.370Z,10.20
2019-04-28T20:39:26.283Z,10.30
2019-04-28T20:41:57.769Z,10.30
2019-04-28T20:44:27.051Z,10.20
2019-04-28T20:46:56.578Z,10.10
2019-04-28T20:49:25.850Z,10.10
2019-04-28T20:51:55.383Z,10.10
2019-04-28T20:54:24.660Z,10.10
2019-04-28T20:56:53.967Z,10.00
2019-04-28T20:59:23.238Z,10.00
2019-04-28T21:01:52.527Z,10.00
2019-04-28T21:04:21.798Z,10.10
2019-04-28T21:06:51.096Z,10.10
2019-04-28T21:09:20.370Z,10.10
2019-04-28T21:11:49.674Z,10.00
2019-04-28T21:14:20.750Z,10.00
2019-04-28T21:16:50.237Z,10.10
2019-04-28T21:19:19.861Z,10.10
2019-04-28T21:21:49.384Z,9.60
2019-04-28T21:24:18.656Z,9.20
2019-04-28T21:26:48.017Z,9.10
2019-04-28T21:29:17.286Z,9.20
2019-04-28T21:31:46.575Z,9.20
2019-04-28T21:34:15.862Z,9.10
2019-04-28T21:36:45.139Z,9.10
2019-04-28T21:39:14.759Z,9.10
2019-04-28T21:41:44.035Z,9.20
2019-04-28T21:44:14.968Z,9.10
2019-04-28T21:47:01.474Z,8.90
2019-04-28T21:49:32.398Z,8.80
2019-04-28T21:52:01.678Z,8.80
2019-04-28T21:54:31.460Z,8.80
2019-04-28T21:57:00.730Z,9.00
2019-04-28T21:59:30.011Z,9.10
2019-04-28T22:02:00.290Z,9.20
2019-04-28T22:04:29.883Z,9.30
2019-04-28T22:06:59.175Z,9.40
2019-04-28T22:09:28.676Z,9.40
2019-04-28T22:11:58.022Z,9.40
2019-04-28T22:14:27.602Z,9.40
2019-04-28T22:16:56.895Z,9.40
2019-04-28T22:19:26.168Z,9.40
2019-04-28T22:21:55.450Z,9.30
2019-04-28T22:24:26.359Z,9.30
2019-04-28T22:26:55.643Z,9.40
2019-04-28T22:29:24.915Z,9.40
2019-04-28T22:31:54.187Z,9.40
2019-04-28T22:34:23.450Z,9.50
2019-04-28T22:36:52.739Z,9.60
2019-04-28T22:39:22.006Z,9.70
2019-04-28T22:41:51.371Z,9.70
2019-04-28T22:44:20.946Z,9.70
2019-04-28T22:46:50.239Z,9.60
2019-04-28T22:49:19.540Z,9.60
2019-04-28T22:51:48.810Z,9.40
2019-04-28T22:54:38.021Z,9.40
2019-04-28T22:57:21.016Z,9.40
2019-04-28T22:59:51.942Z,9.40
2019-04-28T23:02:22.923Z,9.30
2019-04-28T23:04:59.211Z,9.30
2019-04-28T23:07:28.554Z,9.20
2019-04-28T23:09:57.914Z,9.10
2019-04-28T23:12:27.504Z,9.00
2019-04-28T23:14:56.771Z,9.00
2019-04-28T23:17:26.115Z,9.00
2019-04-28T23:19:55.706Z,9.30
2019-04-28T23:22:46.015Z,9.20
2019-04-28T23:25:04.328Z,9.20
2019-04-28T23:27:33.850Z,9.20
2019-04-28T23:30:03.574Z,9.20
2019-04-28T23:32:33.164Z,9.20
2019-04-28T23:35:02.810Z,9.20
2019-04-28T23:37:32.148Z,9.10
2019-04-28T23:40:01.786Z,9.10
2019-04-28T23:42:35.387Z,9.00
2019-04-28T23:45:06.194Z,8.90
2019-04-28T23:47:35.502Z,8.80
2019-04-28T23:50:08.375Z,8.70
2019-04-28T23:52:48.272Z,8.70
2019-04-28T23:55:18.530Z,8.60
2019-04-28T23:57:47.806Z,8.60
